sensor_id;sensor_type;location;lat;lon;timestamp;P1;durP1;ratioP1;P2;durP2;ratioP2
75772;SDS011;64381;0.000;0.000;2024-03-02T00:02:03;10.77;;;5.28;;
75772;SDS011;64381;0.000;0.000;2024-03-02T00:04:31;12.32;;;5.22;;
75772;SDS011;64381;0.000;0.000;2024-03-02T00:06:56;12.43;;;5.40;;
75772;SDS011;64381;0.000;0.000;2024-03-02T00:09:21;12.17;;;4.90;;
75772;SDS011;64381;0.000;0.000;2024-03-02T00:11:47;11.33;;;5.50;;
75772;SDS011;64381;0.000;0.000;2024-03-02T00:14:12;9.77;;;5.23;;
75772;SDS011;64381;0.000;0.000;2024-03-02T00:16:37;10.30;;;5.10;;
75772;SDS011;64381;0.000;0.000;2024-03-02T00:19:03;10.37;;;4.73;;
75772;SDS011;64381;0.000;0.000;2024-03-02T00:21:29;10.65;;;5.18;;
75772;SDS011;64381;0.000;0.000;2024-03-02T00:23:55;11.32;;;5.28;;
75772;SDS011;64381;0.000;0.000;2024-03-02T00:26:21;11.23;;;5.20;;
75772;SDS011;64381;0.000;0.000;2024-03-02T00:28:46;11.33;;;4.97;;
75772;SDS011;64381;0.000;0.000;2024-03-02T00:31:12;10.03;;;4.70;;
75772;SDS011;64381;0.000;0.000;2024-03-02T00:33:42;9.98;;;5.00;;
75772;SDS011;64381;0.000;0.000;2024-03-02T00:36:08;10.05;;;4.97;;
75772;SDS011;64381;0.000;0.000;2024-03-02T00:38:49;9.88;;;5.07;;
75772;SDS011;64381;0.000;0.000;2024-03-02T00:41:17;9.40;;;4.53;;
75772;SDS011;64381;0.000;0.000;2024-03-02T00:44:04;9.77;;;4.40;;
75772;SDS011;64381;0.000;0.000;2024-03-02T00:46:35;9.93;;;4.45;;
75772;SDS011;64381;0.000;0.000;2024-03-02T00:49:03;9.82;;;4.85;;
75772;SDS011;64381;0.000;0.000;2024-03-02T00:51:30;9.80;;;4.38;;
75772;SDS011;64381;0.000;0.000;2024-03-02T00:54:00;8.83;;;4.83;;
75772;SDS011;64381;0.000;0.000;2024-03-02T00:56:26;10.20;;;5.00;;
75772;SDS011;64381;0.000;0.000;2024-03-02T00:58:52;9.13;;;4.27;;
75772;SDS011;64381;0.000;0.000;2024-03-02T01:01:18;9.48;;;4.00;;
75772;SDS011;64381;0.000;0.000;2024-03-02T01:03:43;9.07;;;4.13;;
75772;SDS011;64381;0.000;0.000;2024-03-02T01:06:09;8.90;;;3.83;;
75772;SDS011;64381;0.000;0.000;2024-03-02T01:08:37;8.47;;;4.27;;
75772;SDS011;64381;0.000;0.000;2024-03-02T01:11:03;8.18;;;4.35;;
75772;SDS011;64381;0.000;0.000;2024-03-02T01:13:29;9.00;;;4.18;;
75772;SDS011;64381;0.000;0.000;2024-03-02T01:15:54;8.67;;;4.00;;
75772;SDS011;64381;0.000;0.000;2024-03-02T01:18:20;8.50;;;4.30;;
75772;SDS011;64381;0.000;0.000;2024-03-02T01:20:45;8.57;;;4.33;;
75772;SDS011;64381;0.000;0.000;2024-03-02T01:23:10;8.47;;;4.10;;
75772;SDS011;64381;0.000;0.000;2024-03-02T01:25:36;9.20;;;3.83;;
75772;SDS011;64381;0.000;0.000;2024-03-02T01:28:01;8.30;;;4.07;;
75772;SDS011;64381;0.000;0.000;2024-03-02T01:30:26;7.40;;;3.90;;
75772;SDS011;64381;0.000;0.000;2024-03-02T01:32:51;7.93;;;3.60;;
75772;SDS011;64381;0.000;0.000;2024-03-02T01:35:17;8.20;;;3.70;;
75772;SDS011;64381;0.000;0.000;2024-03-02T01:37:42;8.07;;;4.00;;
75772;SDS011;64381;0.000;0.000;2024-03-02T01:40:07;8.63;;;3.90;;
75772;SDS011;64381;0.000;0.000;2024-03-02T01:42:33;8.47;;;3.80;;
75772;SDS011;64381;0.000;0.000;2024-03-02T01:44:58;8.60;;;4.10;;
75772;SDS011;64381;0.000;0.000;2024-03-02T01:47:23;8.13;;;3.73;;
75772;SDS011;64381;0.000;0.000;2024-03-02T01:49:49;9.10;;;3.83;;
75772;SDS011;64381;0.000;0.000;2024-03-02T01:52:14;7.43;;;3.93;;
75772;SDS011;64381;0.000;0.000;2024-03-02T01:54:39;8.87;;;4.10;;
75772;SDS011;64381;0.000;0.000;2024-03-02T01:57:04;7.40;;;3.87;;
75772;SDS011;64381;0.000;0.000;2024-03-02T01:59:29;7.50;;;3.80;;
75772;SDS011;64381;0.000;0.000;2024-03-02T02:01:55;7.20;;;3.43;;
75772;SDS011;64381;0.000;0.000;2024-03-02T02:04:20;6.73;;;3.33;;
75772;SDS011;64381;0.000;0.000;2024-03-02T02:06:45;8.50;;;3.93;;
75772;SDS011;64381;0.000;0.000;2024-03-02T02:09:10;8.27;;;3.70;;
75772;SDS011;64381;0.000;0.000;2024-03-02T02:11:35;7.23;;;3.63;;
75772;SDS011;64381;0.000;0.000;2024-03-02T02:14:01;6.90;;;3.40;;
75772;SDS011;64381;0.000;0.000;2024-03-02T02:16:26;7.38;;;3.45;;
75772;SDS011;64381;0.000;0.000;2024-03-02T02:18:51;6.60;;;3.30;;
75772;SDS011;64381;0.000;0.000;2024-03-02T02:21:17;6.93;;;3.33;;
75772;SDS011;64381;0.000;0.000;2024-03-02T02:23:42;7.20;;;3.60;;
75772;SDS011;64381;0.000;0.000;2024-03-02T02:26:07;7.30;;;3.40;;
75772;SDS011;64381;0.000;0.000;2024-03-02T02:28:32;7.23;;;3.60;;
75772;SDS011;64381;0.000;0.000;2024-03-02T02:30:57;8.10;;;3.53;;
75772;SDS011;64381;0.000;0.000;2024-03-02T02:33:23;6.73;;;3.47;;
75772;SDS011;64381;0.000;0.000;2024-03-02T02:35:48;7.10;;;3.50;;
75772;SDS011;64381;0.000;0.000;2024-03-02T02:38:13;6.03;;;3.17;;
75772;SDS011;64381;0.000;0.000;2024-03-02T02:40:38;7.73;;;3.20;;
75772;SDS011;64381;0.000;0.000;2024-03-02T02:43:03;7.43;;;3.30;;
75772;SDS011;64381;0.000;0.000;2024-03-02T02:45:29;7.10;;;3.40;;
75772;SDS011;64381;0.000;0.000;2024-03-02T02:47:54;6.30;;;3.37;;
75772;SDS011;64381;0.000;0.000;2024-03-02T02:50:19;6.00;;;2.97;;
75772;SDS011;64381;0.000;0.000;2024-03-02T02:52:44;6.83;;;3.20;;
75772;SDS011;64381;0.000;0.000;2024-03-02T02:55:11;6.87;;;3.23;;
75772;SDS011;64381;0.000;0.000;2024-03-02T02:57:37;6.03;;;3.13;;
75772;SDS011;64381;0.000;0.000;2024-03-02T03:00:08;7.53;;;3.20;;
75772;SDS011;64381;0.000;0.000;2024-03-02T03:02:38;7.72;;;3.28;;
75772;SDS011;64381;0.000;0.000;2024-03-02T03:05:04;5.75;;;3.13;;
75772;SDS011;64381;0.000;0.000;2024-03-02T03:07:30;5.65;;;2.80;;
75772;SDS011;64381;0.000;0.000;2024-03-02T03:09:56;6.23;;;2.87;;
75772;SDS011;64381;0.000;0.000;2024-03-02T03:12:21;5.67;;;3.07;;
75772;SDS011;64381;0.000;0.000;2024-03-02T03:14:46;6.10;;;2.80;;
75772;SDS011;64381;0.000;0.000;2024-03-02T03:17:11;5.83;;;2.90;;
75772;SDS011;64381;0.000;0.000;2024-03-02T03:19:38;5.67;;;3.03;;
75772;SDS011;64381;0.000;0.000;2024-03-02T03:22:03;7.55;;;2.83;;
75772;SDS011;64381;0.000;0.000;2024-03-02T03:24:28;5.60;;;2.50;;
75772;SDS011;64381;0.000;0.000;2024-03-02T03:26:54;6.17;;;2.90;;
75772;SDS011;64381;0.000;0.000;2024-03-02T03:29:19;5.33;;;2.80;;
75772;SDS011;64381;0.000;0.000;2024-03-02T03:31:44;6.40;;;2.77;;
75772;SDS011;64381;0.000;0.000;2024-03-02T03:34:09;5.87;;;2.90;;
75772;SDS011;64381;0.000;0.000;2024-03-02T03:36:34;5.60;;;2.67;;
75772;SDS011;64381;0.000;0.000;2024-03-02T03:39:00;5.83;;;2.90;;
75772;SDS011;64381;0.000;0.000;2024-03-02T03:41:25;5.43;;;2.70;;
75772;SDS011;64381;0.000;0.000;2024-03-02T03:43:50;6.33;;;2.40;;
75772;SDS011;64381;0.000;0.000;2024-03-02T03:46:15;5.73;;;2.87;;
75772;SDS011;64381;0.000;0.000;2024-03-02T03:48:40;6.50;;;2.90;;
75772;SDS011;64381;0.000;0.000;2024-03-02T03:51:06;5.13;;;2.43;;
75772;SDS011;64381;0.000;0.000;2024-03-02T03:53:31;5.07;;;2.60;;
75772;SDS011;64381;0.000;0.000;2024-03-02T03:55:56;6.60;;;2.80;;
75772;SDS011;64381;0.000;0.000;2024-03-02T03:58:21;5.17;;;2.60;;
75772;SDS011;64381;0.000;0.000;2024-03-02T04:00:46;5.00;;;2.73;;
75772;SDS011;64381;0.000;0.000;2024-03-02T04:03:12;5.50;;;2.80;;
75772;SDS011;64381;0.000;0.000;2024-03-02T04:05:37;5.47;;;2.90;;
75772;SDS011;64381;0.000;0.000;2024-03-02T04:08:02;6.30;;;2.90;;
75772;SDS011;64381;0.000;0.000;2024-03-02T04:10:27;5.87;;;2.70;;
75772;SDS011;64381;0.000;0.000;2024-03-02T04:12:53;5.57;;;2.50;;
75772;SDS011;64381;0.000;0.000;2024-03-02T04:15:18;5.87;;;2.70;;
75772;SDS011;64381;0.000;0.000;2024-03-02T04:17:43;5.20;;;2.80;;
75772;SDS011;64381;0.000;0.000;2024-03-02T04:20:08;4.70;;;2.40;;
75772;SDS011;64381;0.000;0.000;2024-03-02T04:22:34;5.70;;;2.53;;
75772;SDS011;64381;0.000;0.000;2024-03-02T04:24:59;5.53;;;2.60;;
75772;SDS011;64381;0.000;0.000;2024-03-02T04:27:25;4.83;;;2.70;;
75772;SDS011;64381;0.000;0.000;2024-03-02T04:29:50;4.80;;;2.40;;
75772;SDS011;64381;0.000;0.000;2024-03-02T04:32:15;5.83;;;2.70;;
75772;SDS011;64381;0.000;0.000;2024-03-02T04:34:40;7.23;;;4.17;;
75772;SDS011;64381;0.000;0.000;2024-03-02T04:37:06;4.93;;;2.43;;
75772;SDS011;64381;0.000;0.000;2024-03-02T04:39:31;4.47;;;2.30;;
75772;SDS011;64381;0.000;0.000;2024-03-02T04:41:56;5.60;;;2.57;;
75772;SDS011;64381;0.000;0.000;2024-03-02T04:44:21;5.37;;;2.70;;
75772;SDS011;64381;0.000;0.000;2024-03-02T04:46:47;4.40;;;2.30;;
75772;SDS011;64381;0.000;0.000;2024-03-02T04:49:12;5.00;;;2.60;;
75772;SDS011;64381;0.000;0.000;2024-03-02T04:51:37;4.63;;;2.33;;
75772;SDS011;64381;0.000;0.000;2024-03-02T04:54:02;4.60;;;2.20;;
75772;SDS011;64381;0.000;0.000;2024-03-02T04:56:27;4.67;;;2.33;;
75772;SDS011;64381;0.000;0.000;2024-03-02T04:58:53;4.43;;;2.17;;
75772;SDS011;64381;0.000;0.000;2024-03-02T05:01:18;5.00;;;2.60;;
75772;SDS011;64381;0.000;0.000;2024-03-02T05:03:43;4.60;;;2.20;;
75772;SDS011;64381;0.000;0.000;2024-03-02T05:06:08;5.17;;;2.40;;
75772;SDS011;64381;0.000;0.000;2024-03-02T05:08:34;4.80;;;2.50;;
75772;SDS011;64381;0.000;0.000;2024-03-02T05:10:59;4.73;;;2.27;;
75772;SDS011;64381;0.000;0.000;2024-03-02T05:13:24;4.97;;;2.47;;
75772;SDS011;64381;0.000;0.000;2024-03-02T05:15:49;4.77;;;2.33;;
75772;SDS011;64381;0.000;0.000;2024-03-02T05:18:14;5.90;;;2.27;;
75772;SDS011;64381;0.000;0.000;2024-03-02T05:20:40;5.43;;;2.27;;
75772;SDS011;64381;0.000;0.000;2024-03-02T05:23:05;4.33;;;2.40;;
75772;SDS011;64381;0.000;0.000;2024-03-02T05:25:30;5.00;;;2.20;;
75772;SDS011;64381;0.000;0.000;2024-03-02T05:27:55;4.87;;;2.67;;
75772;SDS011;64381;0.000;0.000;2024-03-02T05:30:20;4.73;;;2.37;;
75772;SDS011;64381;0.000;0.000;2024-03-02T05:32:46;5.07;;;2.90;;
75772;SDS011;64381;0.000;0.000;2024-03-02T05:35:11;4.43;;;2.30;;
75772;SDS011;64381;0.000;0.000;2024-03-02T05:37:36;4.53;;;2.23;;
75772;SDS011;64381;0.000;0.000;2024-03-02T05:40:01;4.70;;;2.20;;
75772;SDS011;64381;0.000;0.000;2024-03-02T05:42:27;5.75;;;2.30;;
75772;SDS011;64381;0.000;0.000;2024-03-02T05:44:52;4.77;;;2.20;;
75772;SDS011;64381;0.000;0.000;2024-03-02T05:47:17;4.50;;;2.30;;
75772;SDS011;64381;0.000;0.000;2024-03-02T05:49:42;4.50;;;2.33;;
75772;SDS011;64381;0.000;0.000;2024-03-02T05:52:08;4.90;;;2.40;;
75772;SDS011;64381;0.000;0.000;2024-03-02T05:54:33;4.73;;;2.07;;
75772;SDS011;64381;0.000;0.000;2024-03-02T05:56:58;4.63;;;2.20;;
75772;SDS011;64381;0.000;0.000;2024-03-02T05:59:23;4.57;;;2.27;;
75772;SDS011;64381;0.000;0.000;2024-03-02T06:01:49;4.47;;;2.20;;
75772;SDS011;64381;0.000;0.000;2024-03-02T06:04:14;5.10;;;2.10;;
75772;SDS011;64381;0.000;0.000;2024-03-02T06:06:40;4.20;;;2.10;;
75772;SDS011;64381;0.000;0.000;2024-03-02T06:09:06;4.57;;;2.13;;
75772;SDS011;64381;0.000;0.000;2024-03-02T06:11:31;4.60;;;2.22;;
75772;SDS011;64381;0.000;0.000;2024-03-02T06:13:56;3.93;;;1.87;;
75772;SDS011;64381;0.000;0.000;2024-03-02T06:16:22;4.93;;;2.00;;
75772;SDS011;64381;0.000;0.000;2024-03-02T06:18:47;4.77;;;2.30;;
75772;SDS011;64381;0.000;0.000;2024-03-02T06:21:12;4.73;;;2.03;;
75772;SDS011;64381;0.000;0.000;2024-03-02T06:23:37;4.17;;;2.07;;
75772;SDS011;64381;0.000;0.000;2024-03-02T06:26:02;4.37;;;1.93;;
75772;SDS011;64381;0.000;0.000;2024-03-02T06:28:28;4.90;;;2.00;;
75772;SDS011;64381;0.000;0.000;2024-03-02T06:30:53;5.03;;;2.23;;
75772;SDS011;64381;0.000;0.000;2024-03-02T06:33:18;4.73;;;2.27;;
75772;SDS011;64381;0.000;0.000;2024-03-02T06:35:43;3.70;;;2.07;;
75772;SDS011;64381;0.000;0.000;2024-03-02T06:38:09;4.47;;;2.20;;
75772;SDS011;64381;0.000;0.000;2024-03-02T06:40:34;4.00;;;1.90;;
75772;SDS011;64381;0.000;0.000;2024-03-02T06:42:59;4.47;;;2.00;;
75772;SDS011;64381;0.000;0.000;2024-03-02T06:45:24;4.07;;;2.10;;
75772;SDS011;64381;0.000;0.000;2024-03-02T06:47:49;4.53;;;2.10;;
75772;SDS011;64381;0.000;0.000;2024-03-02T06:50:15;4.57;;;2.10;;
75772;SDS011;64381;0.000;0.000;2024-03-02T06:52:40;4.83;;;2.20;;
75772;SDS011;64381;0.000;0.000;2024-03-02T06:55:05;4.47;;;2.00;;
75772;SDS011;64381;0.000;0.000;2024-03-02T06:57:31;4.15;;;1.80;;
75772;SDS011;64381;0.000;0.000;2024-03-02T06:59:56;4.33;;;2.00;;
75772;SDS011;64381;0.000;0.000;2024-03-02T07:02:21;4.17;;;2.03;;
75772;SDS011;64381;0.000;0.000;2024-03-02T07:04:46;4.30;;;2.00;;
75772;SDS011;64381;0.000;0.000;2024-03-02T07:07:12;3.97;;;1.93;;
75772;SDS011;64381;0.000;0.000;2024-03-02T07:09:37;4.50;;;2.10;;
75772;SDS011;64381;0.000;0.000;2024-03-02T07:12:03;4.17;;;1.60;;
75772;SDS011;64381;0.000;0.000;2024-03-02T07:14:28;3.78;;;1.83;;
75772;SDS011;64381;0.000;0.000;2024-03-02T07:16:53;4.40;;;2.07;;
75772;SDS011;64381;0.000;0.000;2024-03-02T07:19:19;4.17;;;1.87;;
75772;SDS011;64381;0.000;0.000;2024-03-02T07:21:44;4.30;;;1.90;;
75772;SDS011;64381;0.000;0.000;2024-03-02T07:24:09;4.47;;;2.00;;
75772;SDS011;64381;0.000;0.000;2024-03-02T07:26:34;3.57;;;1.83;;
75772;SDS011;64381;0.000;0.000;2024-03-02T07:28:59;3.80;;;1.80;;
75772;SDS011;64381;0.000;0.000;2024-03-02T07:31:25;4.70;;;2.00;;
75772;SDS011;64381;0.000;0.000;2024-03-02T07:33:50;3.50;;;1.60;;
75772;SDS011;64381;0.000;0.000;2024-03-02T07:36:16;3.40;;;2.00;;
75772;SDS011;64381;0.000;0.000;2024-03-02T07:38:41;3.40;;;1.70;;
75772;SDS011;64381;0.000;0.000;2024-03-02T07:41:08;3.73;;;1.80;;
75772;SDS011;64381;0.000;0.000;2024-03-02T07:43:33;4.10;;;1.90;;
75772;SDS011;64381;0.000;0.000;2024-03-02T07:45:59;3.97;;;1.90;;
75772;SDS011;64381;0.000;0.000;2024-03-02T07:48:24;4.30;;;1.87;;
75772;SDS011;64381;0.000;0.000;2024-03-02T07:50:50;3.80;;;2.00;;
75772;SDS011;64381;0.000;0.000;2024-03-02T07:53:15;3.63;;;1.83;;
75772;SDS011;64381;0.000;0.000;2024-03-02T07:55:40;4.00;;;1.70;;
75772;SDS011;64381;0.000;0.000;2024-03-02T07:58:06;4.47;;;2.07;;
75772;SDS011;64381;0.000;0.000;2024-03-02T08:00:31;3.40;;;1.70;;
75772;SDS011;64381;0.000;0.000;2024-03-02T08:02:56;3.93;;;1.80;;
75772;SDS011;64381;0.000;0.000;2024-03-02T08:05:22;4.53;;;1.90;;
75772;SDS011;64381;0.000;0.000;2024-03-02T08:07:47;3.60;;;1.80;;
75772;SDS011;64381;0.000;0.000;2024-03-02T08:10:12;3.40;;;1.70;;
75772;SDS011;64381;0.000;0.000;2024-03-02T08:12:38;3.90;;;1.83;;
75772;SDS011;64381;0.000;0.000;2024-03-02T08:15:03;3.50;;;1.60;;
75772;SDS011;64381;0.000;0.000;2024-03-02T08:17:29;3.80;;;1.90;;
75772;SDS011;64381;0.000;0.000;2024-03-02T08:19:54;3.40;;;1.60;;
75772;SDS011;64381;0.000;0.000;2024-03-02T08:22:20;3.93;;;1.80;;
75772;SDS011;64381;0.000;0.000;2024-03-02T08:24:45;4.10;;;1.87;;
75772;SDS011;64381;0.000;0.000;2024-03-02T08:27:10;3.70;;;1.60;;
75772;SDS011;64381;0.000;0.000;2024-03-02T08:29:36;4.57;;;1.90;;
75772;SDS011;64381;0.000;0.000;2024-03-02T08:32:01;3.53;;;1.80;;
75772;SDS011;64381;0.000;0.000;2024-03-02T08:34:26;3.80;;;1.80;;
75772;SDS011;64381;0.000;0.000;2024-03-02T08:36:51;3.40;;;1.70;;
75772;SDS011;64381;0.000;0.000;2024-03-02T08:39:17;3.77;;;1.63;;
75772;SDS011;64381;0.000;0.000;2024-03-02T08:41:44;3.42;;;1.55;;
75772;SDS011;64381;0.000;0.000;2024-03-02T08:44:09;3.60;;;1.70;;
75772;SDS011;64381;0.000;0.000;2024-03-02T08:46:35;4.23;;;1.63;;
75772;SDS011;64381;0.000;0.000;2024-03-02T08:49:00;4.10;;;1.50;;
75772;SDS011;64381;0.000;0.000;2024-03-02T08:51:25;3.70;;;1.73;;
75772;SDS011;64381;0.000;0.000;2024-03-02T08:53:50;3.80;;;1.80;;
75772;SDS011;64381;0.000;0.000;2024-03-02T08:56:16;3.87;;;1.70;;
75772;SDS011;64381;0.000;0.000;2024-03-02T08:58:41;3.80;;;1.90;;
75772;SDS011;64381;0.000;0.000;2024-03-02T09:01:06;4.00;;;1.90;;
75772;SDS011;64381;0.000;0.000;2024-03-02T09:03:32;3.83;;;1.77;;
75772;SDS011;64381;0.000;0.000;2024-03-02T09:05:57;3.90;;;1.50;;
75772;SDS011;64381;0.000;0.000;2024-03-02T09:08:22;3.80;;;1.60;;
75772;SDS011;64381;0.000;0.000;2024-03-02T09:10:47;3.67;;;1.80;;
75772;SDS011;64381;0.000;0.000;2024-03-02T09:13:12;3.63;;;1.70;;
75772;SDS011;64381;0.000;0.000;2024-03-02T09:15:38;3.50;;;1.77;;
75772;SDS011;64381;0.000;0.000;2024-03-02T09:18:03;3.40;;;1.57;;
75772;SDS011;64381;0.000;0.000;2024-03-02T09:20:29;4.20;;;1.70;;
75772;SDS011;64381;0.000;0.000;2024-03-02T09:22:54;3.50;;;1.30;;
75772;SDS011;64381;0.000;0.000;2024-03-02T09:25:19;3.57;;;1.43;;
75772;SDS011;64381;0.000;0.000;2024-03-02T09:27:44;4.10;;;1.70;;
75772;SDS011;64381;0.000;0.000;2024-03-02T09:30:10;3.40;;;1.50;;
75772;SDS011;64381;0.000;0.000;2024-03-02T09:32:36;3.53;;;1.55;;
75772;SDS011;64381;0.000;0.000;2024-03-02T09:35:02;3.97;;;1.70;;
75772;SDS011;64381;0.000;0.000;2024-03-02T09:37:27;3.90;;;1.67;;
75772;SDS011;64381;0.000;0.000;2024-03-02T09:39:52;3.80;;;1.67;;
75772;SDS011;64381;0.000;0.000;2024-03-02T09:42:17;3.63;;;1.70;;
75772;SDS011;64381;0.000;0.000;2024-03-02T09:44:43;3.55;;;1.73;;
75772;SDS011;64381;0.000;0.000;2024-03-02T09:47:09;3.90;;;1.60;;
75772;SDS011;64381;0.000;0.000;2024-03-02T09:49:34;3.60;;;1.70;;
75772;SDS011;64381;0.000;0.000;2024-03-02T09:51:59;3.50;;;1.40;;
75772;SDS011;64381;0.000;0.000;2024-03-02T09:54:26;3.05;;;1.40;;
75772;SDS011;64381;0.000;0.000;2024-03-02T09:56:51;3.20;;;1.43;;
75772;SDS011;64381;0.000;0.000;2024-03-02T09:59:16;3.07;;;1.33;;
75772;SDS011;64381;0.000;0.000;2024-03-02T10:01:55;3.37;;;1.60;;
75772;SDS011;64381;0.000;0.000;2024-03-02T10:04:21;4.00;;;1.40;;
75772;SDS011;64381;0.000;0.000;2024-03-02T10:06:47;3.50;;;1.50;;
75772;SDS011;64381;0.000;0.000;2024-03-02T10:09:13;3.30;;;1.50;;
75772;SDS011;64381;0.000;0.000;2024-03-02T10:11:51;2.90;;;1.30;;
75772;SDS011;64381;0.000;0.000;2024-03-02T10:14:17;3.20;;;1.30;;
75772;SDS011;64381;0.000;0.000;2024-03-02T10:16:43;3.50;;;1.43;;
75772;SDS011;64381;0.000;0.000;2024-03-02T10:19:19;3.13;;;1.50;;
75772;SDS011;64381;0.000;0.000;2024-03-02T10:21:48;3.23;;;1.50;;
75772;SDS011;64381;0.000;0.000;2024-03-02T10:24:15;3.30;;;1.50;;
75772;SDS011;64381;0.000;0.000;2024-03-02T10:26:40;7.32;;;1.80;;
75772;SDS011;64381;0.000;0.000;2024-03-02T10:29:06;47.60;;;4.27;;
75772;SDS011;64381;0.000;0.000;2024-03-02T10:31:33;22.05;;;2.95;;
75772;SDS011;64381;0.000;0.000;2024-03-02T10:33:58;21.50;;;2.97;;
75772;SDS011;64381;0.000;0.000;2024-03-02T10:36:24;17.13;;;2.40;;
75772;SDS011;64381;0.000;0.000;2024-03-02T10:38:50;10.30;;;2.10;;
75772;SDS011;64381;0.000;0.000;2024-03-02T10:41:18;16.83;;;2.80;;
75772;SDS011;64381;0.000;0.000;2024-03-02T10:43:44;12.63;;;2.80;;
75772;SDS011;64381;0.000;0.000;2024-03-02T10:46:10;11.95;;;3.38;;
75772;SDS011;64381;0.000;0.000;2024-03-02T10:48:38;11.65;;;3.42;;
75772;SDS011;64381;0.000;0.000;2024-03-02T10:51:05;9.65;;;3.28;;
75772;SDS011;64381;0.000;0.000;2024-03-02T10:53:32;10.77;;;5.47;;
75772;SDS011;64381;0.000;0.000;2024-03-02T10:55:58;11.30;;;5.33;;
75772;SDS011;64381;0.000;0.000;2024-03-02T10:58:23;13.40;;;6.60;;
75772;SDS011;64381;0.000;0.000;2024-03-02T11:00:52;15.05;;;5.88;;
75772;SDS011;64381;0.000;0.000;2024-03-02T11:03:17;11.90;;;6.30;;
75772;SDS011;64381;0.000;0.000;2024-03-02T11:05:43;9.73;;;5.57;;
75772;SDS011;64381;0.000;0.000;2024-03-02T11:08:12;10.30;;;5.07;;
75772;SDS011;64381;0.000;0.000;2024-03-02T11:10:41;9.35;;;4.80;;
75772;SDS011;64381;0.000;0.000;2024-03-02T11:13:12;11.07;;;4.65;;
75772;SDS011;64381;0.000;0.000;2024-03-02T11:15:43;7.80;;;4.47;;
75772;SDS011;64381;0.000;0.000;2024-03-02T11:18:09;10.70;;;4.72;;
75772;SDS011;64381;0.000;0.000;2024-03-02T11:20:36;8.50;;;3.70;;
75772;SDS011;64381;0.000;0.000;2024-03-02T11:23:07;7.55;;;3.80;;
75772;SDS011;64381;0.000;0.000;2024-03-02T11:25:33;9.13;;;3.83;;
75772;SDS011;64381;0.000;0.000;2024-03-02T11:27:59;9.27;;;3.70;;
75772;SDS011;64381;0.000;0.000;2024-03-02T11:32:57;8.45;;;3.35;;
75772;SDS011;64381;0.000;0.000;2024-03-02T11:35:29;6.97;;;3.30;;
75772;SDS011;64381;0.000;0.000;2024-03-02T11:37:54;7.20;;;3.40;;
75772;SDS011;64381;0.000;0.000;2024-03-02T11:40:24;8.37;;;4.00;;
75772;SDS011;64381;0.000;0.000;2024-03-02T11:42:50;10.45;;;3.63;;
75772;SDS011;64381;0.000;0.000;2024-03-02T11:45:24;7.90;;;3.17;;
75772;SDS011;64381;0.000;0.000;2024-03-02T11:47:50;7.53;;;3.10;;
75772;SDS011;64381;0.000;0.000;2024-03-02T11:50:22;9.38;;;3.70;;
75772;SDS011;64381;0.000;0.000;2024-03-02T11:52:58;8.27;;;3.67;;
75772;SDS011;64381;0.000;0.000;2024-03-02T11:55:25;7.47;;;3.42;;
75772;SDS011;64381;0.000;0.000;2024-03-02T11:57:51;10.05;;;4.30;;
75772;SDS011;64381;0.000;0.000;2024-03-02T12:00:17;7.28;;;3.42;;
75772;SDS011;64381;0.000;0.000;2024-03-02T12:02:43;8.48;;;3.95;;
75772;SDS011;64381;0.000;0.000;2024-03-02T12:05:10;8.93;;;4.03;;
75772;SDS011;64381;0.000;0.000;2024-03-02T12:07:35;8.80;;;3.90;;
75772;SDS011;64381;0.000;0.000;2024-03-02T12:10:01;8.33;;;3.80;;
75772;SDS011;64381;0.000;0.000;2024-03-02T12:12:27;6.93;;;3.70;;
75772;SDS011;64381;0.000;0.000;2024-03-02T12:14:52;6.93;;;3.33;;
75772;SDS011;64381;0.000;0.000;2024-03-02T12:17:18;7.45;;;3.83;;
75772;SDS011;64381;0.000;0.000;2024-03-02T12:19:44;7.57;;;4.10;;
75772;SDS011;64381;0.000;0.000;2024-03-02T12:22:09;6.72;;;3.38;;
75772;SDS011;64381;0.000;0.000;2024-03-02T12:24:35;9.60;;;3.97;;
75772;SDS011;64381;0.000;0.000;2024-03-02T12:27:00;7.20;;;3.90;;
75772;SDS011;64381;0.000;0.000;2024-03-02T12:29:25;6.90;;;3.87;;
75772;SDS011;64381;0.000;0.000;2024-03-02T12:31:51;8.50;;;3.97;;
75772;SDS011;64381;0.000;0.000;2024-03-02T12:34:17;7.55;;;3.90;;
75772;SDS011;64381;0.000;0.000;2024-03-02T12:36:42;7.53;;;3.43;;
75772;SDS011;64381;0.000;0.000;2024-03-02T12:39:08;7.88;;;3.80;;
75772;SDS011;64381;0.000;0.000;2024-03-02T12:41:35;8.30;;;3.80;;
75772;SDS011;64381;0.000;0.000;2024-03-02T12:44:04;11.35;;;4.45;;
75772;SDS011;64381;0.000;0.000;2024-03-02T12:46:30;7.30;;;3.47;;
75772;SDS011;64381;0.000;0.000;2024-03-02T12:48:56;8.07;;;3.63;;
75772;SDS011;64381;0.000;0.000;2024-03-02T12:51:21;6.80;;;3.47;;
75772;SDS011;64381;0.000;0.000;2024-03-02T12:53:52;9.33;;;3.30;;
75772;SDS011;64381;0.000;0.000;2024-03-02T12:56:19;9.82;;;3.95;;
75772;SDS011;64381;0.000;0.000;2024-03-02T12:58:44;9.77;;;4.50;;
75772;SDS011;64381;0.000;0.000;2024-03-02T13:01:09;12.67;;;5.57;;
75772;SDS011;64381;0.000;0.000;2024-03-02T13:03:38;10.10;;;4.83;;
75772;SDS011;64381;0.000;0.000;2024-03-02T13:06:04;8.65;;;4.25;;
75772;SDS011;64381;0.000;0.000;2024-03-02T13:08:30;8.73;;;4.00;;
75772;SDS011;64381;0.000;0.000;2024-03-02T13:10:56;10.17;;;4.37;;
75772;SDS011;64381;0.000;0.000;2024-03-02T13:13:21;10.60;;;3.97;;
75772;SDS011;64381;0.000;0.000;2024-03-02T13:15:46;177.33;;;19.00;;
75772;SDS011;64381;0.000;0.000;2024-03-02T13:18:12;120.43;;;10.93;;
75772;SDS011;64381;0.000;0.000;2024-03-02T13:20:37;52.33;;;6.63;;
75772;SDS011;64381;0.000;0.000;2024-03-02T13:23:02;22.63;;;4.40;;
75772;SDS011;64381;0.000;0.000;2024-03-02T13:25:27;13.23;;;3.53;;
75772;SDS011;64381;0.000;0.000;2024-03-02T13:27:53;21.00;;;3.83;;
75772;SDS011;64381;0.000;0.000;2024-03-02T13:30:18;15.63;;;3.50;;
75772;SDS011;64381;0.000;0.000;2024-03-02T13:32:43;16.27;;;3.70;;
75772;SDS011;64381;0.000;0.000;2024-03-02T13:35:08;12.10;;;3.40;;
75772;SDS011;64381;0.000;0.000;2024-03-02T13:37:33;9.73;;;3.80;;
75772;SDS011;64381;0.000;0.000;2024-03-02T13:39:59;11.90;;;4.13;;
75772;SDS011;64381;0.000;0.000;2024-03-02T13:42:24;11.27;;;3.60;;
75772;SDS011;64381;0.000;0.000;2024-03-02T13:44:49;9.57;;;3.93;;
75772;SDS011;64381;0.000;0.000;2024-03-02T13:47:15;12.50;;;4.13;;
75772;SDS011;64381;0.000;0.000;2024-03-02T13:49:40;9.37;;;3.87;;
75772;SDS011;64381;0.000;0.000;2024-03-02T13:52:05;10.37;;;4.20;;
75772;SDS011;64381;0.000;0.000;2024-03-02T13:54:31;9.98;;;4.30;;
75772;SDS011;64381;0.000;0.000;2024-03-02T13:56:56;9.97;;;4.30;;
75772;SDS011;64381;0.000;0.000;2024-03-02T13:59:22;8.53;;;3.53;;
75772;SDS011;64381;0.000;0.000;2024-03-02T14:01:47;6.53;;;3.47;;
75772;SDS011;64381;0.000;0.000;2024-03-02T14:04:12;8.80;;;3.80;;
75772;SDS011;64381;0.000;0.000;2024-03-02T14:06:37;6.20;;;3.30;;
75772;SDS011;64381;0.000;0.000;2024-03-02T14:09:03;7.17;;;3.30;;
75772;SDS011;64381;0.000;0.000;2024-03-02T14:11:28;7.73;;;3.27;;
75772;SDS011;64381;0.000;0.000;2024-03-02T14:13:53;7.77;;;3.37;;
75772;SDS011;64381;0.000;0.000;2024-03-02T14:16:18;7.20;;;3.10;;
75772;SDS011;64381;0.000;0.000;2024-03-02T14:18:43;6.80;;;3.30;;
75772;SDS011;64381;0.000;0.000;2024-03-02T14:21:09;7.03;;;3.07;;
75772;SDS011;64381;0.000;0.000;2024-03-02T14:23:34;6.60;;;3.33;;
75772;SDS011;64381;0.000;0.000;2024-03-02T14:25:59;8.80;;;3.13;;
75772;SDS011;64381;0.000;0.000;2024-03-02T14:28:25;7.93;;;3.60;;
75772;SDS011;64381;0.000;0.000;2024-03-02T14:30:50;9.73;;;3.97;;
75772;SDS011;64381;0.000;0.000;2024-03-02T14:33:15;7.23;;;3.50;;
75772;SDS011;64381;0.000;0.000;2024-03-02T14:35:40;7.77;;;3.50;;
75772;SDS011;64381;0.000;0.000;2024-03-02T14:38:05;8.00;;;3.50;;
75772;SDS011;64381;0.000;0.000;2024-03-02T14:40:31;8.13;;;4.00;;
75772;SDS011;64381;0.000;0.000;2024-03-02T14:42:56;9.67;;;4.37;;
75772;SDS011;64381;0.000;0.000;2024-03-02T14:45:21;9.63;;;4.90;;
75772;SDS011;64381;0.000;0.000;2024-03-02T14:47:46;9.03;;;4.13;;
75772;SDS011;64381;0.000;0.000;2024-03-02T14:50:12;9.37;;;4.30;;
75772;SDS011;64381;0.000;0.000;2024-03-02T14:52:37;10.83;;;4.90;;
75772;SDS011;64381;0.000;0.000;2024-03-02T14:55:02;9.17;;;4.47;;